sensor_id;sensor_type;location;lat;lon;timestamp;P1;durP1;ratioP1;P2;durP2;ratioP2
20725;SDS011;10524;48.132;8.518;2023-11-21T00:00:31;6.03;;;1.13;;
20725;SDS011;10524;48.132;8.518;2023-11-21T00:02:57;4.43;;;1.20;;
20725;SDS011;10524;48.132;8.518;2023-11-21T00:05:22;4.45;;;1.02;;
20725;SDS011;10524;48.132;8.518;2023-11-21T00:07:48;2.08;;;1.00;;
20725;SDS011;10524;48.132;8.518;2023-11-21T00:10:14;4.10;;;1.00;;
20725;SDS011;10524;48.132;8.518;2023-11-21T00:12:41;2.17;;;0.93;;
20725;SDS011;10524;48.132;8.518;2023-11-21T00:15:07;3.38;;;1.00;;
20725;SDS011;10524;48.132;8.518;2023-11-21T00:17:37;2.22;;;0.70;;
20725;SDS011;10524;48.132;8.518;2023-11-21T00:20:03;2.47;;;0.75;;
20725;SDS011;10524;48.132;8.518;2023-11-21T00:22:32;2.38;;;0.80;;
20725;SDS011;10524;48.132;8.518;2023-11-21T00:25:01;3.00;;;0.90;;
20725;SDS011;10524;48.132;8.518;2023-11-21T00:27:29;2.42;;;0.85;;
20725;SDS011;10524;48.132;8.518;2023-11-21T00:29:55;4.03;;;0.93;;
20725;SDS011;10524;48.132;8.518;2023-11-21T00:32:20;4.47;;;1.00;;
20725;SDS011;10524;48.132;8.518;2023-11-21T00:34:46;2.28;;;0.73;;
20725;SDS011;10524;48.132;8.518;2023-11-21T00:37:12;3.00;;;1.08;;
20725;SDS011;10524;48.132;8.518;2023-11-21T00:39:39;3.38;;;0.93;;
20725;SDS011;10524;48.132;8.518;2023-11-21T00:42:05;2.33;;;0.80;;
20725;SDS011;10524;48.132;8.518;2023-11-21T00:44:31;2.38;;;0.77;;
20725;SDS011;10524;48.132;8.518;2023-11-21T00:46:57;1.35;;;1.02;;
20725;SDS011;10524;48.132;8.518;2023-11-21T00:49:22;1.33;;;0.73;;
20725;SDS011;10524;48.132;8.518;2023-11-21T00:51:48;2.50;;;0.60;;
20725;SDS011;10524;48.132;8.518;2023-11-21T00:54:14;1.83;;;0.77;;
20725;SDS011;10524;48.132;8.518;2023-11-21T00:56:42;1.13;;;0.60;;
20725;SDS011;10524;48.132;8.518;2023-11-21T00:59:08;2.03;;;0.77;;
20725;SDS011;10524;48.132;8.518;2023-11-21T01:01:34;2.28;;;0.70;;
20725;SDS011;10524;48.132;8.518;2023-11-21T01:03:59;3.50;;;0.77;;
20725;SDS011;10524;48.132;8.518;2023-11-21T01:06:26;2.90;;;0.98;;
20725;SDS011;10524;48.132;8.518;2023-11-21T01:08:51;2.22;;;0.90;;
20725;SDS011;10524;48.132;8.518;2023-11-21T01:11:17;1.25;;;0.75;;
20725;SDS011;10524;48.132;8.518;2023-11-21T01:13:43;4.22;;;0.70;;
20725;SDS011;10524;48.132;8.518;2023-11-21T01:16:10;1.85;;;0.82;;
20725;SDS011;10524;48.132;8.518;2023-11-21T01:18:36;2.80;;;0.90;;
20725;SDS011;10524;48.132;8.518;2023-11-21T01:21:03;1.80;;;0.60;;
20725;SDS011;10524;48.132;8.518;2023-11-21T01:23:30;1.05;;;0.60;;
20725;SDS011;10524;48.132;8.518;2023-11-21T01:25:56;1.10;;;0.60;;
20725;SDS011;10524;48.132;8.518;2023-11-21T01:28:22;0.52;;;0.50;;
20725;SDS011;10524;48.132;8.518;2023-11-21T01:30:48;0.77;;;0.52;;
20725;SDS011;10524;48.132;8.518;2023-11-21T01:33:14;1.42;;;0.70;;
20725;SDS011;10524;48.132;8.518;2023-11-21T01:35:41;0.80;;;0.50;;
20725;SDS011;10524;48.132;8.518;2023-11-21T01:38:07;1.13;;;0.60;;
20725;SDS011;10524;48.132;8.518;2023-11-21T01:40:33;1.58;;;0.75;;
20725;SDS011;10524;48.132;8.518;2023-11-21T01:43:00;2.03;;;0.60;;
20725;SDS011;10524;48.132;8.518;2023-11-21T01:45:28;1.30;;;0.80;;
20725;SDS011;10524;48.132;8.518;2023-11-21T01:47:56;1.42;;;0.40;;
20725;SDS011;10524;48.132;8.518;2023-11-21T01:50:23;2.25;;;0.52;;
20725;SDS011;10524;48.132;8.518;2023-11-21T01:52:50;0.93;;;0.40;;
20725;SDS011;10524;48.132;8.518;2023-11-21T01:55:17;1.63;;;0.65;;
20725;SDS011;10524;48.132;8.518;2023-11-21T01:57:44;2.15;;;0.70;;
20725;SDS011;10524;48.132;8.518;2023-11-21T02:00:11;2.17;;;0.80;;
20725;SDS011;10524;48.132;8.518;2023-11-21T02:05:17;3.03;;;0.70;;
20725;SDS011;10524;48.132;8.518;2023-11-21T02:07:44;0.88;;;0.60;;
20725;SDS011;10524;48.132;8.518;2023-11-21T02:10:13;2.30;;;0.70;;
20725;SDS011;10524;48.132;8.518;2023-11-21T02:12:40;0.82;;;0.65;;
20725;SDS011;10524;48.132;8.518;2023-11-21T02:15:13;0.52;;;0.50;;
20725;SDS011;10524;48.132;8.518;2023-11-21T02:17:45;1.50;;;0.70;;
20725;SDS011;10524;48.132;8.518;2023-11-21T02:20:16;2.83;;;0.60;;
20725;SDS011;10524;48.132;8.518;2023-11-21T02:22:44;1.27;;;0.63;;
20725;SDS011;10524;48.132;8.518;2023-11-21T02:25:29;1.98;;;0.68;;
20725;SDS011;10524;48.132;8.518;2023-11-21T02:27:58;4.13;;;0.73;;
20725;SDS011;10524;48.132;8.518;2023-11-21T02:30:25;0.60;;;0.60;;
20725;SDS011;10524;48.132;8.518;2023-11-21T02:32:53;1.55;;;0.75;;
20725;SDS011;10524;48.132;8.518;2023-11-21T02:35:22;2.40;;;0.70;;
20725;SDS011;10524;48.132;8.518;2023-11-21T02:37:48;1.45;;;0.70;;
20725;SDS011;10524;48.132;8.518;2023-11-21T02:40:15;1.90;;;0.60;;
20725;SDS011;10524;48.132;8.518;2023-11-21T02:42:48;2.08;;;0.80;;
20725;SDS011;10524;48.132;8.518;2023-11-21T02:45:17;2.15;;;0.70;;
20725;SDS011;10524;48.132;8.518;2023-11-21T02:47:45;1.33;;;0.50;;
20725;SDS011;10524;48.132;8.518;2023-11-21T02:50:12;2.00;;;0.70;;
20725;SDS011;10524;48.132;8.518;2023-11-21T02:52:38;2.10;;;0.70;;
20725;SDS011;10524;48.132;8.518;2023-11-21T02:55:05;2.13;;;0.70;;
20725;SDS011;10524;48.132;8.518;2023-11-21T02:57:32;0.85;;;0.57;;
20725;SDS011;10524;48.132;8.518;2023-11-21T02:59:58;0.80;;;0.60;;
20725;SDS011;10524;48.132;8.518;2023-11-21T03:02:25;1.77;;;0.75;;
20725;SDS011;10524;48.132;8.518;2023-11-21T03:04:51;0.70;;;0.60;;
20725;SDS011;10524;48.132;8.518;2023-11-21T03:07:18;0.50;;;0.50;;
20725;SDS011;10524;48.132;8.518;2023-11-21T03:09:44;0.35;;;0.32;;
20725;SDS011;10524;48.132;8.518;2023-11-21T03:12:10;1.75;;;0.50;;
20725;SDS011;10524;48.132;8.518;2023-11-21T03:14:37;0.88;;;0.60;;
20725;SDS011;10524;48.132;8.518;2023-11-21T03:17:04;0.88;;;0.50;;
20725;SDS011;10524;48.132;8.518;2023-11-21T03:19:30;2.22;;;0.65;;
20725;SDS011;10524;48.132;8.518;2023-11-21T03:21:56;1.50;;;0.50;;
20725;SDS011;10524;48.132;8.518;2023-11-21T03:24:22;1.85;;;0.60;;
20725;SDS011;10524;48.132;8.518;2023-11-21T03:26:48;0.60;;;0.60;;
20725;SDS011;10524;48.132;8.518;2023-11-21T03:29:14;0.68;;;0.60;;
20725;SDS011;10524;48.132;8.518;2023-11-21T03:31:40;0.65;;;0.50;;
20725;SDS011;10524;48.132;8.518;2023-11-21T03:34:06;1.60;;;0.60;;
20725;SDS011;10524;48.132;8.518;2023-11-21T03:36:34;1.55;;;0.60;;
20725;SDS011;10524;48.132;8.518;2023-11-21T03:39:01;1.00;;;0.68;;
20725;SDS011;10524;48.132;8.518;2023-11-21T03:41:27;1.17;;;0.70;;
20725;SDS011;10524;48.132;8.518;2023-11-21T03:43:53;1.35;;;0.70;;
20725;SDS011;10524;48.132;8.518;2023-11-21T03:46:19;0.90;;;0.80;;
20725;SDS011;10524;48.132;8.518;2023-11-21T03:48:45;1.15;;;0.68;;
20725;SDS011;10524;48.132;8.518;2023-11-21T03:51:10;1.05;;;0.80;;
20725;SDS011;10524;48.132;8.518;2023-11-21T03:53:36;1.27;;;0.77;;
20725;SDS011;10524;48.132;8.518;2023-11-21T03:56:02;1.42;;;0.95;;
20725;SDS011;10524;48.132;8.518;2023-11-21T03:58:29;1.27;;;0.88;;
20725;SDS011;10524;48.132;8.518;2023-11-21T04:00:54;2.30;;;0.98;;
20725;SDS011;10524;48.132;8.518;2023-11-21T04:03:20;1.95;;;0.73;;
20725;SDS011;10524;48.132;8.518;2023-11-21T04:05:46;0.88;;;0.80;;
20725;SDS011;10524;48.132;8.518;2023-11-21T04:08:12;1.60;;;1.45;;
20725;SDS011;10524;48.132;8.518;2023-11-21T04:10:38;7.85;;;4.25;;
20725;SDS011;10524;48.132;8.518;2023-11-21T04:13:04;1.55;;;1.30;;
20725;SDS011;10524;48.132;8.518;2023-11-21T04:15:32;2.45;;;1.00;;
20725;SDS011;10524;48.132;8.518;2023-11-21T04:17:58;1.30;;;1.08;;
20725;SDS011;10524;48.132;8.518;2023-11-21T04:20:23;3.30;;;1.40;;
20725;SDS011;10524;48.132;8.518;2023-11-21T04:22:49;2.00;;;1.30;;
20725;SDS011;10524;48.132;8.518;2023-11-21T04:25:15;1.67;;;1.30;;
20725;SDS011;10524;48.132;8.518;2023-11-21T04:27:41;1.65;;;1.05;;
20725;SDS011;10524;48.132;8.518;2023-11-21T04:30:09;1.77;;;1.00;;
20725;SDS011;10524;48.132;8.518;2023-11-21T04:32:36;1.77;;;0.82;;
20725;SDS011;10524;48.132;8.518;2023-11-21T04:35:02;1.15;;;0.90;;
20725;SDS011;10524;48.132;8.518;2023-11-21T04:37:29;1.63;;;0.90;;
20725;SDS011;10524;48.132;8.518;2023-11-21T04:39:55;2.13;;;1.20;;
20725;SDS011;10524;48.132;8.518;2023-11-21T04:42:21;3.75;;;0.85;;
20725;SDS011;10524;48.132;8.518;2023-11-21T04:44:47;2.78;;;0.85;;
20725;SDS011;10524;48.132;8.518;2023-11-21T04:47:13;3.50;;;0.93;;
20725;SDS011;10524;48.132;8.518;2023-11-21T04:49:41;2.17;;;1.23;;
20725;SDS011;10524;48.132;8.518;2023-11-21T04:52:07;4.07;;;1.95;;
20725;SDS011;10524;48.132;8.518;2023-11-21T04:54:35;7.28;;;3.70;;
20725;SDS011;10524;48.132;8.518;2023-11-21T04:57:01;5.22;;;3.40;;
20725;SDS011;10524;48.132;8.518;2023-11-21T04:59:26;6.60;;;3.70;;
20725;SDS011;10524;48.132;8.518;2023-11-21T05:01:53;6.03;;;3.00;;
20725;SDS011;10524;48.132;8.518;2023-11-21T05:04:19;3.95;;;2.72;;
20725;SDS011;10524;48.132;8.518;2023-11-21T05:06:47;5.63;;;2.78;;
20725;SDS011;10524;48.132;8.518;2023-11-21T05:09:13;4.75;;;2.90;;
20725;SDS011;10524;48.132;8.518;2023-11-21T05:11:39;14.40;;;9.25;;
20725;SDS011;10524;48.132;8.518;2023-11-21T05:14:06;4.18;;;2.83;;
20725;SDS011;10524;48.132;8.518;2023-11-21T05:16:32;4.22;;;1.70;;
20725;SDS011;10524;48.132;8.518;2023-11-21T05:18:58;3.38;;;1.40;;
20725;SDS011;10524;48.132;8.518;2023-11-21T05:21:29;1.98;;;1.10;;
20725;SDS011;10524;48.132;8.518;2023-11-21T05:23:58;1.30;;;1.20;;
20725;SDS011;10524;48.132;8.518;2023-11-21T05:26:23;1.88;;;1.35;;
20725;SDS011;10524;48.132;8.518;2023-11-21T05:28:49;2.53;;;0.93;;
20725;SDS011;10524;48.132;8.518;2023-11-21T05:31:15;2.28;;;1.10;;
20725;SDS011;10524;48.132;8.518;2023-11-21T05:33:41;2.10;;;1.00;;
20725;SDS011;10524;48.132;8.518;2023-11-21T05:36:07;1.90;;;0.95;;
20725;SDS011;10524;48.132;8.518;2023-11-21T05:38:33;2.08;;;0.98;;
20725;SDS011;10524;48.132;8.518;2023-11-21T05:41:01;2.08;;;1.00;;
20725;SDS011;10524;48.132;8.518;2023-11-21T05:43:27;1.65;;;0.90;;
20725;SDS011;10524;48.132;8.518;2023-11-21T05:45:55;3.50;;;1.83;;
20725;SDS011;10524;48.132;8.518;2023-11-21T05:48:20;2.83;;;2.40;;
20725;SDS011;10524;48.132;8.518;2023-11-21T05:50:46;4.75;;;2.22;;
20725;SDS011;10524;48.132;8.518;2023-11-21T05:53:13;2.70;;;2.00;;
20725;SDS011;10524;48.132;8.518;2023-11-21T05:55:41;3.60;;;1.92;;
20725;SDS011;10524;48.132;8.518;2023-11-21T05:58:07;2.97;;;2.05;;
20725;SDS011;10524;48.132;8.518;2023-11-21T06:00:33;4.85;;;2.15;;
20725;SDS011;10524;48.132;8.518;2023-11-21T06:02:59;3.72;;;2.22;;
20725;SDS011;10524;48.132;8.518;2023-11-21T06:05:25;46.25;;;25.60;;
20725;SDS011;10524;48.132;8.518;2023-11-21T06:07:52;6.38;;;4.43;;
20725;SDS011;10524;48.132;8.518;2023-11-21T06:10:20;3.92;;;2.70;;
20725;SDS011;10524;48.132;8.518;2023-11-21T06:12:46;30.67;;;13.60;;
20725;SDS011;10524;48.132;8.518;2023-11-21T06:15:13;34.25;;;16.80;;
20725;SDS011;10524;48.132;8.518;2023-11-21T06:17:39;18.73;;;11.00;;
20725;SDS011;10524;48.132;8.518;2023-11-21T06:20:07;7.97;;;5.65;;
20725;SDS011;10524;48.132;8.518;2023-11-21T06:22:39;4.60;;;2.83;;
20725;SDS011;10524;48.132;8.518;2023-11-21T06:25:07;4.30;;;2.20;;
20725;SDS011;10524;48.132;8.518;2023-11-21T06:27:34;3.95;;;1.70;;
20725;SDS011;10524;48.132;8.518;2023-11-21T06:30:03;3.85;;;2.30;;
20725;SDS011;10524;48.132;8.518;2023-11-21T06:32:29;2.20;;;2.00;;
20725;SDS011;10524;48.132;8.518;2023-11-21T06:34:55;3.25;;;1.92;;
20725;SDS011;10524;48.132;8.518;2023-11-21T06:37:24;104.93;;;28.42;;
20725;SDS011;10524;48.132;8.518;2023-11-21T06:39:51;72.68;;;26.13;;
20725;SDS011;10524;48.132;8.518;2023-11-21T06:42:18;74.88;;;31.75;;
20725;SDS011;10524;48.132;8.518;2023-11-21T06:44:47;333.10;;;81.70;;
20725;SDS011;10524;48.132;8.518;2023-11-21T06:47:13;59.53;;;25.90;;
20725;SDS011;10524;48.132;8.518;2023-11-21T06:49:41;20.60;;;14.23;;
20725;SDS011;10524;48.132;8.518;2023-11-21T06:52:08;19.65;;;12.75;;
20725;SDS011;10524;48.132;8.518;2023-11-21T06:54:33;17.63;;;12.18;;
20725;SDS011;10524;48.132;8.518;2023-11-21T06:57:00;22.63;;;14.25;;
20725;SDS011;10524;48.132;8.518;2023-11-21T06:59:28;41.95;;;24.15;;
20725;SDS011;10524;48.132;8.518;2023-11-21T07:01:53;37.33;;;18.33;;
20725;SDS011;10524;48.132;8.518;2023-11-21T07:04:19;33.13;;;17.65;;
20725;SDS011;10524;48.132;8.518;2023-11-21T07:06:45;40.40;;;19.85;;
20725;SDS011;10524;48.132;8.518;2023-11-21T07:09:11;102.65;;;45.28;;
20725;SDS011;10524;48.132;8.518;2023-11-21T07:11:37;98.30;;;44.30;;
20725;SDS011;10524;48.132;8.518;2023-11-21T07:14:04;74.97;;;37.05;;
20725;SDS011;10524;48.132;8.518;2023-11-21T07:16:35;72.32;;;35.95;;
20725;SDS011;10524;48.132;8.518;2023-11-21T07:19:06;53.13;;;26.50;;
20725;SDS011;10524;48.132;8.518;2023-11-21T07:21:35;47.03;;;24.42;;
20725;SDS011;10524;48.132;8.518;2023-11-21T07:24:01;35.30;;;19.20;;
20725;SDS011;10524;48.132;8.518;2023-11-21T07:26:29;28.88;;;15.55;;
20725;SDS011;10524;48.132;8.518;2023-11-21T07:28:55;16.80;;;10.02;;
20725;SDS011;10524;48.132;8.518;2023-11-21T07:31:21;29.70;;;15.82;;
20725;SDS011;10524;48.132;8.518;2023-11-21T07:33:47;40.92;;;24.15;;
20725;SDS011;10524;48.132;8.518;2023-11-21T07:36:14;41.90;;;22.73;;
20725;SDS011;10524;48.132;8.518;2023-11-21T07:38:40;41.67;;;21.42;;
20725;SDS011;10524;48.132;8.518;2023-11-21T07:41:07;41.78;;;21.95;;
20725;SDS011;10524;48.132;8.518;2023-11-21T07:43:34;36.72;;;20.73;;
20725;SDS011;10524;48.132;8.518;2023-11-21T07:46:01;37.10;;;19.00;;
20725;SDS011;10524;48.132;8.518;2023-11-21T07:48:28;33.67;;;18.50;;
20725;SDS011;10524;48.132;8.518;2023-11-21T07:50:58;33.80;;;18.42;;
20725;SDS011;10524;48.132;8.518;2023-11-21T07:53:24;27.88;;;15.90;;
20725;SDS011;10524;48.132;8.518;2023-11-21T07:55:50;23.98;;;12.13;;
20725;SDS011;10524;48.132;8.518;2023-11-21T07:58:17;16.52;;;10.48;;
20725;SDS011;10524;48.132;8.518;2023-11-21T08:00:43;17.30;;;10.65;;
20725;SDS011;10524;48.132;8.518;2023-11-21T08:03:09;12.25;;;8.30;;
20725;SDS011;10524;48.132;8.518;2023-11-21T08:05:36;8.98;;;6.50;;
20725;SDS011;10524;48.132;8.518;2023-11-21T08:08:02;8.68;;;6.88;;
20725;SDS011;10524;48.132;8.518;2023-11-21T08:10:28;36.42;;;19.75;;
20725;SDS011;10524;48.132;8.518;2023-11-21T08:12:55;28.58;;;15.25;;
20725;SDS011;10524;48.132;8.518;2023-11-21T08:15:21;28.70;;;15.20;;
20725;SDS011;10524;48.132;8.518;2023-11-21T08:17:47;22.40;;;13.63;;
20725;SDS011;10524;48.132;8.518;2023-11-21T08:20:13;20.45;;;12.60;;
20725;SDS011;10524;48.132;8.518;2023-11-21T08:22:45;15.80;;;10.40;;
20725;SDS011;10524;48.132;8.518;2023-11-21T08:25:13;13.32;;;9.50;;
20725;SDS011;10524;48.132;8.518;2023-11-21T08:27:40;13.65;;;9.30;;
20725;SDS011;10524;48.132;8.518;2023-11-21T08:30:06;16.77;;;11.27;;
20725;SDS011;10524;48.132;8.518;2023-11-21T08:32:32;16.35;;;10.73;;
20725;SDS011;10524;48.132;8.518;2023-11-21T08:34:58;24.38;;;15.15;;
20725;SDS011;10524;48.132;8.518;2023-11-21T08:37:25;28.83;;;17.45;;
20725;SDS011;10524;48.132;8.518;2023-11-21T08:39:52;27.00;;;16.38;;
20725;SDS011;10524;48.132;8.518;2023-11-21T08:42:18;23.30;;;15.50;;
20725;SDS011;10524;48.132;8.518;2023-11-21T08:44:44;21.67;;;14.05;;
20725;SDS011;10524;48.132;8.518;2023-11-21T08:47:11;24.88;;;15.35;;
20725;SDS011;10524;48.132;8.518;2023-11-21T08:49:37;22.75;;;13.88;;
20725;SDS011;10524;48.132;8.518;2023-11-21T08:52:03;16.45;;;11.93;;
20725;SDS011;10524;48.132;8.518;2023-11-21T08:54:30;15.88;;;11.35;;
20725;SDS011;10524;48.132;8.518;2023-11-21T08:56:56;17.27;;;11.10;;
20725;SDS011;10524;48.132;8.518;2023-11-21T08:59:24;13.82;;;10.30;;
20725;SDS011;10524;48.132;8.518;2023-11-21T09:01:50;12.30;;;9.30;;
20725;SDS011;10524;48.132;8.518;2023-11-21T09:04:16;9.25;;;7.03;;
20725;SDS011;10524;48.132;8.518;2023-11-21T09:06:41;8.55;;;6.57;;
20725;SDS011;10524;48.132;8.518;2023-11-21T09:09:07;8.15;;;5.82;;
20725;SDS011;10524;48.132;8.518;2023-11-21T09:11:35;10.68;;;7.35;;
20725;SDS011;10524;48.132;8.518;2023-11-21T09:14:02;9.32;;;6.28;;
20725;SDS011;10524;48.132;8.518;2023-11-21T09:16:30;9.90;;;6.50;;
20725;SDS011;10524;48.132;8.518;2023-11-21T09:18:57;9.43;;;6.68;;
20725;SDS011;10524;48.132;8.518;2023-11-21T09:21:23;6.07;;;4.70;;
20725;SDS011;10524;48.132;8.518;2023-11-21T09:23:50;10.73;;;5.00;;
20725;SDS011;10524;48.132;8.518;2023-11-21T09:26:16;7.22;;;4.93;;
20725;SDS011;10524;48.132;8.518;2023-11-21T09:28:43;6.65;;;4.93;;
20725;SDS011;10524;48.132;8.518;2023-11-21T09:31:12;7.25;;;4.60;;
20725;SDS011;10524;48.132;8.518;2023-11-21T09:33:40;6.13;;;4.18;;
20725;SDS011;10524;48.132;8.518;2023-11-21T09:36:10;7.72;;;4.43;;
20725;SDS011;10524;48.132;8.518;2023-11-21T09:38:40;4.88;;;4.10;;
20725;SDS011;10524;48.132;8.518;2023-11-21T09:41:10;3.78;;;2.95;;
20725;SDS011;10524;48.132;8.518;2023-11-21T09:43:46;3.10;;;2.80;;
20725;SDS011;10524;48.132;8.518;2023-11-21T09:46:17;3.57;;;3.17;;
20725;SDS011;10524;48.132;8.518;2023-11-21T09:48:50;3.78;;;2.70;;
20725;SDS011;10524;48.132;8.518;2023-11-21T09:51:18;3.75;;;2.70;;
20725;SDS011;10524;48.132;8.518;2023-11-21T09:53:47;4.18;;;2.50;;
20725;SDS011;10524;48.132;8.518;2023-11-21T09:56:17;2.72;;;1.65;;
20725;SDS011;10524;48.132;8.518;2023-11-21T09:58:50;5.10;;;3.95;;
20725;SDS011;10524;48.132;8.518;2023-11-21T10:01:18;4.25;;;3.55;;
20725;SDS011;10524;48.132;8.518;2023-11-21T10:03:45;6.47;;;3.05;;
20725;SDS011;10524;48.132;8.518;2023-11-21T10:06:12;3.33;;;2.58;;
20725;SDS011;10524;48.132;8.518;2023-11-21T10:08:39;4.38;;;2.58;;
20725;SDS011;10524;48.132;8.518;2023-11-21T10:11:06;4.65;;;2.97;;
20725;SDS011;10524;48.132;8.518;2023-11-21T10:13:36;3.55;;;2.80;;
20725;SDS011;10524;48.132;8.518;2023-11-21T10:16:03;3.60;;;2.10;;
20725;SDS011;10524;48.132;8.518;2023-11-21T10:18:31;1.92;;;1.60;;
20725;SDS011;10524;48.132;8.518;2023-11-21T10:20:59;3.45;;;1.40;;
20725;SDS011;10524;48.132;8.518;2023-11-21T10:23:26;1.92;;;1.50;;
20725;SDS011;10524;48.132;8.518;2023-11-21T10:25:53;2.50;;;1.25;;
20725;SDS011;10524;48.132;8.518;2023-11-21T10:28:20;1.40;;;1.30;;
20725;SDS011;10524;48.132;8.518;2023-11-21T10:30:46;1.85;;;1.52;;
20725;SDS011;10524;48.132;8.518;2023-11-21T10:33:12;3.55;;;1.90;;
20725;SDS011;10524;48.132;8.518;2023-11-21T10:35:48;2.42;;;1.80;;
20725;SDS011;10524;48.132;8.518;2023-11-21T10:38:16;2.17;;;1.67;;
20725;SDS011;10524;48.132;8.518;2023-11-21T10:40:42;1.70;;;1.50;;
20725;SDS011;10524;48.132;8.518;2023-11-21T10:43:10;2.75;;;1.70;;
20725;SDS011;10524;48.132;8.518;2023-11-21T10:45:36;1.45;;;1.35;;
20725;SDS011;10524;48.132;8.518;2023-11-21T10:48:09;2.05;;;1.50;;
20725;SDS011;10524;48.132;8.518;2023-11-21T10:50:36;1.45;;;1.27;;
20725;SDS011;10524;48.132;8.518;2023-11-21T10:53:03;1.40;;;1.20;;
20725;SDS011;10524;48.132;8.518;2023-11-21T10:55:29;1.30;;;1.20;;
20725;SDS011;10524;48.132;8.518;2023-11-21T10:57:58;1.75;;;1.20;;
20725;SDS011;10524;48.132;8.518;2023-11-21T11:00:27;2.63;;;1.30;;
20725;SDS011;10524;48.132;8.518;2023-11-21T11:02:54;2.30;;;1.30;;
20725;SDS011;10524;48.132;8.518;2023-11-21T11:05:22;1.60;;;1.45;;
20725;SDS011;10524;48.132;8.518;2023-11-21T11:07:56;1.77;;;1.38;;
20725;SDS011;10524;48.132;8.518;2023-11-21T11:10:26;1.55;;;1.38;;
20725;SDS011;10524;48.132;8.518;2023-11-21T11:12:56;2.30;;;1.20;;
20725;SDS011;10524;48.132;8.518;2023-11-21T11:15:23;1.30;;;1.20;;
20725;SDS011;10524;48.132;8.518;2023-11-21T11:17:52;1.60;;;1.40;;
20725;SDS011;10524;48.132;8.518;2023-11-21T11:20:22;1.35;;;1.20;;
20725;SDS011;10524;48.132;8.518;2023-11-21T11:25:46;1.38;;;1.17;;
20725;SDS011;10524;48.132;8.518;2023-11-21T11:28:47;1.23;;;1.13;;
20725;SDS011;10524;48.132;8.518;2023-11-21T11:34:29;1.27;;;1.02;;
20725;SDS011;10524;48.132;8.518;2023-11-21T11:37:02;0.77;;;0.77;;
20725;SDS011;10524;48.132;8.518;2023-11-21T11:39:34;2.25;;;0.80;;
20725;SDS011;10524;48.132;8.518;2023-11-21T11:42:01;2.88;;;0.90;;
20725;SDS011;10524;48.132;8.518;2023-11-21T11:47:22;2.45;;;1.35;;
20725;SDS011;10524;48.132;8.518;2023-11-21T11:50:06;0.60;;;0.60;;
20725;SDS011;10524;48.132;8.518;2023-11-21T11:53:24;0.50;;;0.50;;
20725;SDS011;10524;48.132;8.518;2023-11-21T11:55:40;0.63;;;0.50;;
20725;SDS011;10524;48.132;8.518;2023-11-21T11:58:06;0.60;;;0.60;;
20725;SDS011;10524;48.132;8.518;2023-11-21T12:00:33;0.88;;;0.60;;
20725;SDS011;10524;48.132;8.518;2023-11-21T12:03:03;0.65;;;0.50;;
20725;SDS011;10524;48.132;8.518;2023-11-21T12:05:34;0.70;;;0.40;;
20725;SDS011;10524;48.132;8.518;2023-11-21T12:08:04;0.52;;;0.50;;
20725;SDS011;10524;48.132;8.518;2023-11-21T12:10:31;1.17;;;0.60;;
20725;SDS011;10524;48.132;8.518;2023-11-21T12:13:09;0.75;;;0.70;;
20725;SDS011;10524;48.132;8.518;2023-11-21T12:15:37;0.82;;;0.57;;
20725;SDS011;10524;48.132;8.518;2023-11-21T12:18:04;1.77;;;1.25;;
20725;SDS011;10524;48.132;8.518;2023-11-21T12:20:30;0.77;;;0.70;;
20725;SDS011;10524;48.132;8.518;2023-11-21T12:22:58;2.10;;;1.77;;
20725;SDS011;10524;48.132;8.518;2023-11-21T12:25:26;0.70;;;0.60;;
20725;SDS011;10524;48.132;8.518;2023-11-21T12:27:57;1.45;;;0.70;;
20725;SDS011;10524;48.132;8.518;2023-11-21T12:30:28;1.10;;;0.90;;
20725;SDS011;10524;48.132;8.518;2023-11-21T12:32:58;2.63;;;1.98;;
20725;SDS011;10524;48.132;8.518;2023-11-21T12:35:26;3.13;;;2.38;;
20725;SDS011;10524;48.132;8.518;2023-11-21T12:37:54;1.30;;;1.20;;
20725;SDS011;10524;48.132;8.518;2023-11-21T12:40:22;0.50;;;0.50;;
20725;SDS011;10524;48.132;8.518;2023-11-21T12:42:48;0.90;;;0.50;;
20725;SDS011;10524;48.132;8.518;2023-11-21T12:47:43;1.10;;;0.90;;
20725;SDS011;10524;48.132;8.518;2023-11-21T12:50:19;0.50;;;0.45;;
20725;SDS011;10524;48.132;8.518;2023-11-21T12:52:49;0.70;;;0.52;;
20725;SDS011;10524;48.132;8.518;2023-11-21T12:55:21;1.58;;;0.90;;
20725;SDS011;10524;48.132;8.518;2023-11-21T12:57:56;2.22;;;1.73;;
20725;SDS011;10524;48.132;8.518;2023-11-21T13:00:31;2.70;;;1.58;;
20725;SDS011;10524;48.132;8.518;2023-11-21T13:03:02;0.70;;;0.68;;
20725;SDS011;10524;48.132;8.518;2023-11-21T13:07:58;0.43;;;0.40;;
20725;SDS011;10524;48.132;8.518;2023-11-21T13:10:27;4.18;;;2.58;;
20725;SDS011;10524;48.132;8.518;2023-11-21T13:12:59;2.47;;;1.60;;
20725;SDS011;10524;48.132;8.518;2023-11-21T13:15:27;0.60;;;0.40;;
20725;SDS011;10524;48.132;8.518;2023-11-21T13:17:53;0.55;;;0.55;;
20725;SDS011;10524;48.132;8.518;2023-11-21T13:20:22;1.70;;;0.88;;
20725;SDS011;10524;48.132;8.518;2023-11-21T13:22:55;2.67;;;2.00;;
20725;SDS011;10524;48.132;8.518;2023-11-21T13:25:26;3.22;;;2.35;;
20725;SDS011;10524;48.132;8.518;2023-11-21T13:27:53;5.63;;;4.07;;
20725;SDS011;10524;48.132;8.518;2023-11-21T13:30:23;0.80;;;0.70;;
20725;SDS011;10524;48.132;8.518;2023-11-21T13:32:55;0.65;;;0.50;;
20725;SDS011;10524;48.132;8.518;2023-11-21T13:35:27;0.60;;;0.50;;
20725;SDS011;10524;48.132;8.518;2023-11-21T13:38:09;0.63;;;0.50;;
20725;SDS011;10524;48.132;8.518;2023-11-21T13:40:45;0.50;;;0.40;;
20725;SDS011;10524;48.132;8.518;2023-11-21T13:43:15;1.35;;;1.25;;
20725;SDS011;10524;48.132;8.518;2023-11-21T13:45:43;1.80;;;0.93;;
20725;SDS011;10524;48.132;8.518;2023-11-21T13:48:11;1.98;;;1.20;;
20725;SDS011;10524;48.132;8.518;2023-11-21T13:50:53;2.75;;;2.00;;
20725;SDS011;10524;48.132;8.518;2023-11-21T13:53:38;2.70;;;1.92;;
20725;SDS011;10524;48.132;8.518;2023-11-21T13:56:06;3.88;;;3.10;;
20725;SDS011;10524;48.132;8.518;2023-11-21T13:58:32;0.77;;;0.68;;
20725;SDS011;10524;48.132;8.518;2023-11-21T14:01:15;1.88;;;0.55;;
20725;SDS011;10524;48.132;8.518;2023-11-21T14:03:56;0.93;;;0.93;;
20725;SDS011;10524;48.132;8.518;2023-11-21T14:06:33;1.48;;;1.25;;
20725;SDS011;10524;48.132;8.518;2023-11-21T14:09:05;2.10;;;1.80;;
20725;SDS011;10524;48.132;8.518;2023-11-21T14:11:33;0.85;;;0.70;;
20725;SDS011;10524;48.132;8.518;2023-11-21T14:13:59;1.20;;;0.80;;
20725;SDS011;10524;48.132;8.518;2023-11-21T14:16:25;1.10;;;1.00;;
20725;SDS011;10524;48.132;8.518;2023-11-21T14:18:51;0.70;;;0.40;;
20725;SDS011;10524;48.132;8.518;2023-11-21T14:21:40;0.80;;;0.68;;
20725;SDS011;10524;48.132;8.518;2023-11-21T14:24:09;0.60;;;0.60;;
20725;SDS011;10524;48.132;8.518;2023-11-21T14:26:38;0.60;;;0.50;;
20725;SDS011;10524;48.132;8.518;2023-11-21T14:29:08;5.25;;;3.05;;
20725;SDS011;10524;48.132;8.518;2023-11-21T14:31:36;0.88;;;0.80;;
20725;SDS011;10524;48.132;8.518;2023-11-21T14:34:01;0.60;;;0.60;;
20725;SDS011;10524;48.132;8.518;2023-11-21T14:36:28;0.60;;;0.60;;
20725;SDS011;10524;48.132;8.518;2023-11-21T14:38:54;0.52;;;0.52;;
20725;SDS011;10524;48.132;8.518;2023-11-21T14:41:20;0.50;;;0.50;;
20725;SDS011;10524;48.132;8.518;2023-11-21T14:43:45;1.10;;;0.70;;
20725;SDS011;10524;48.132;8.518;2023-11-21T14:46:14;0.63;;;0.63;;
20725;SDS011;10524;48.132;8.518;2023-11-21T14:48:42;0.80;;;0.60;;
20725;SDS011;10524;48.132;8.518;2023-11-21T14:51:24;0.80;;;0.80;;
20725;SDS011;10524;48.132;8.518;2023-11-21T14:56:34;1.35;;;1.17;;
20725;SDS011;10524;48.132;8.518;2023-11-21T14:59:02;1.15;;;1.05;;
20725;SDS011;10524;48.132;8.518;2023-11-21T15:01:41;1.15;;;0.90;;
20725;SDS011;10524;48.132;8.518;2023-11-21T15:04:22;2.38;;;2.10;;
20725;SDS011;10524;48.132;8.518;2023-11-21T15:07:04;1.92;;;1.35;;